EGSH - Norwich Weather Centre
Distance from station: E 5mi, 14km
Updated: 06/20/2018 9:20am
Partly Cloudy
Partly Cloudy
 Wind from W
Wind: W 13 mph , 20 km/h
Temperature: 75°F , 24°C
Dew Point: 59°F , 15°C
Humidity: 57%
Barometer: 30 inHg , 1016 hPa
Clouds: Partly Cloudy
Visibility: 6 miles , 10 km
Cloud details: Partly Cloudy 4100 ft
2018/06/20 16:20 EGSH 201620Z 27011KT 9999 SCT041 24/15 Q1016 NOSIG